Time;durP1;ratioP1;P1;durP2;ratioP2;P2;SDS_P1;SDS_P2;PMS_P1;PMS_P2;Temp;Humidity;BMP_temperature;BMP_pressure;BME280_temperature;BME280_humidity;BME280_pressure;Samples;Min_cycle;Max_cycle;Signal;HPM_P1;HPM_P2
2022/05/21 00:02:08;;;;;;;1.70;0.90;;;;;;;;;;1824835;78;26751;-54
2022/05/21 00:04:37;;;;;;;1.45;0.70;;;;;;;;;;1815409;78;26224;-48
2022/05/21 00:07:05;;;;;;;2.17;0.85;;;;;;;;;;1818114;78;26322;-49
2022/05/21 00:09:32;;;;;;;0.70;0.70;;;;;;;;;;1817467;78;26330;-49
2022/05/21 00:12:00;;;;;;;1.22;0.80;;;;;;;;;;1814735;78;26283;-52
2022/05/21 00:14:27;;;;;;;1.65;0.80;;;;;;;;;;1821751;78;26317;-50
2022/05/21 00:16:54;;;;;;;0.70;0.70;;;;;;;;;;1815219;78;26324;-50
2022/05/21 00:19:21;;;;;;;1.20;0.90;;;;;;;;;;1824682;78;26260;-51
2022/05/21 00:21:50;;;;;;;0.80;0.80;;;;;;;;;;1820749;78;26773;-53
2022/05/21 00:24:17;;;;;;;0.80;0.80;;;;;;;;;;1817617;78;26343;-50
2022/05/21 00:26:44;;;;;;;0.62;0.62;;;;;;;;;;1774286;79;26304;-52
2022/05/21 00:29:12;;;;;;;0.80;0.80;;;;;;;;;;1843142;77;26610;-50
2022/05/21 00:31:39;;;;;;;0.80;0.80;;;;;;;;;;1795856;77;26348;-53
2022/05/21 00:34:06;;;;;;;0.95;0.70;;;;;;;;;;1798201;77;26292;-47
2022/05/21 00:36:34;;;;;;;0.70;0.70;;;;;;;;;;1798740;77;26350;-49
2022/05/21 00:39:01;;;;;;;0.70;0.70;;;;;;;;;;1839235;77;26274;-49
2022/05/21 00:41:28;;;;;;;0.80;0.80;;;;;;;;;;1835436;77;26633;-54
2022/05/21 00:43:57;;;;;;;0.85;0.80;;;;;;;;;;1807118;78;26350;-56
2022/05/21 00:46:26;;;;;;;0.80;0.80;;;;;;;;;;1799210;78;26358;-50
2022/05/21 00:48:55;;;;;;;0.68;0.68;;;;;;;;;;1839113;76;26742;-54
2022/05/21 00:51:23;;;;;;;0.80;0.80;;;;;;;;;;1841681;77;26532;-50
2022/05/21 00:53:52;;;;;;;0.75;0.75;;;;;;;;;;1809512;78;26342;-55
2022/05/21 00:56:21;;;;;;;0.70;0.70;;;;;;;;;;1836399;77;26293;-50
2022/05/21 01:01:37;;;;;;;0.75;0.70;;;;;;;;;;1831979;77;26341;-47
2022/05/21 01:04:06;;;;;;;0.80;0.80;;;;;;;;;;1835007;77;26235;-56
2022/05/21 01:06:37;;;;;;;0.70;0.70;;;;;;;;;;1812535;78;26390;-96
2022/05/21 01:09:05;;;;;;;0.70;0.70;;;;;;;;;;1820709;73;26272;-51
2022/05/21 01:11:32;;;;;;;1.07;0.72;;;;;;;;;;1808328;77;26667;-52
2022/05/21 01:14:00;;;;;;;0.70;0.70;;;;;;;;;;1805590;77;26265;-50
2022/05/21 01:16:29;;;;;;;0.60;0.60;;;;;;;;;;1801925;77;26401;-54
2022/05/21 01:18:57;;;;;;;0.80;0.78;;;;;;;;;;1812469;77;26583;-54
2022/05/21 01:21:24;;;;;;;0.70;0.70;;;;;;;;;;1810770;77;26308;-52
2022/05/21 01:23:51;;;;;;;0.70;0.70;;;;;;;;;;1813598;77;26351;-50
2022/05/21 01:26:20;;;;;;;1.00;0.70;;;;;;;;;;1811253;77;26861;-51
2022/05/21 01:28:47;;;;;;;0.70;0.70;;;;;;;;;;1803666;77;26301;-48
2022/05/21 01:31:15;;;;;;;0.70;0.70;;;;;;;;;;1810274;77;26819;-50
2022/05/21 01:33:48;;;;;;;0.60;0.60;;;;;;;;;;1810993;77;26376;-49
2022/05/21 01:36:14;;;;;;;0.70;0.70;;;;;;;;;;1808471;77;26313;-48
2022/05/21 01:38:42;;;;;;;0.80;0.80;;;;;;;;;;1808087;77;26249;-53
2022/05/21 01:41:10;;;;;;;0.70;0.70;;;;;;;;;;1811552;77;27253;-51
2022/05/21 01:46:23;;;;;;;0.70;0.70;;;;;;;;;;1808084;77;26388;-47
2022/05/21 01:48:51;;;;;;;0.70;0.70;;;;;;;;;;1805484;77;26394;-49
2022/05/21 01:51:18;;;;;;;0.68;0.68;;;;;;;;;;1806020;77;26301;-53
2022/05/21 01:53:46;;;;;;;0.78;0.78;;;;;;;;;;1806913;77;26289;-48
2022/05/21 01:56:14;;;;;;;0.72;0.72;;;;;;;;;;1807513;77;26317;-55
2022/05/21 01:58:42;;;;;;;0.60;0.60;;;;;;;;;;1810442;77;26746;-50
2022/05/21 02:01:10;;;;;;;0.62;0.62;;;;;;;;;;1807143;79;26356;-50
2022/05/21 02:03:37;;;;;;;0.80;0.80;;;;;;;;;;1800093;79;26758;-47
2022/05/21 02:06:05;;;;;;;0.70;0.70;;;;;;;;;;1807942;78;26293;-50
2022/05/21 02:08:33;;;;;;;0.80;0.80;;;;;;;;;;1819487;78;26664;-48
2022/05/21 02:11:00;;;;;;;0.70;0.70;;;;;;;;;;1812404;78;26340;-51
2022/05/21 02:13:29;;;;;;;0.70;0.70;;;;;;;;;;1787735;78;26375;-48
2022/05/21 02:15:56;;;;;;;0.65;0.65;;;;;;;;;;1795354;78;26294;-50
2022/05/21 02:18:24;;;;;;;0.70;0.70;;;;;;;;;;1795757;78;26709;-50
2022/05/21 02:20:52;;;;;;;0.70;0.70;;;;;;;;;;1795470;79;26387;-51
2022/05/21 02:23:19;;;;;;;0.68;0.65;;;;;;;;;;1776512;79;26289;-51
2022/05/21 02:25:47;;;;;;;0.70;0.70;;;;;;;;;;1800811;79;26277;-49
2022/05/21 02:28:15;;;;;;;0.80;0.80;;;;;;;;;;1797688;78;26282;-48
2022/05/21 02:30:43;;;;;;;0.57;0.57;;;;;;;;;;1794238;78;26730;-54
2022/05/21 02:33:11;;;;;;;1.27;0.70;;;;;;;;;;1798335;78;26332;-49
2022/05/21 02:35:39;;;;;;;0.62;0.62;;;;;;;;;;1800920;79;26328;-47
2022/05/21 02:40:52;;;;;;;0.70;0.70;;;;;;;;;;1774576;78;26455;-51
2022/05/21 02:43:20;;;;;;;0.75;0.75;;;;;;;;;;1783122;79;26286;-48
2022/05/21 02:45:47;;;;;;;0.70;0.70;;;;;;;;;;1799351;79;26234;-45
2022/05/21 02:48:14;;;;;;;0.70;0.70;;;;;;;;;;1799989;79;26317;-49
2022/05/21 02:50:41;;;;;;;0.70;0.70;;;;;;;;;;1800429;79;26355;-49
2022/05/21 02:53:10;;;;;;;0.82;0.80;;;;;;;;;;1800488;79;26359;-51
2022/05/21 02:55:37;;;;;;;0.60;0.60;;;;;;;;;;1795442;79;26298;-47
2022/05/21 02:58:05;;;;;;;0.62;0.62;;;;;;;;;;1800154;79;26119;-53
2022/05/21 03:00:32;;;;;;;2.45;0.80;;;;;;;;;;1800872;78;26343;-52
2022/05/21 03:03:00;;;;;;;0.70;0.70;;;;;;;;;;1800313;79;26289;-48
2022/05/21 03:05:29;;;;;;;0.62;0.62;;;;;;;;;;1800171;79;26227;-45
2022/05/21 03:07:58;;;;;;;0.70;0.70;;;;;;;;;;1798639;78;26309;-47
2022/05/21 03:10:27;;;;;;;1.42;0.72;;;;;;;;;;1796120;79;26828;-53
2022/05/21 03:12:56;;;;;;;0.55;0.55;;;;;;;;;;1799816;79;26282;-48
2022/05/21 03:15:25;;;;;;;0.70;0.70;;;;;;;;;;1800444;79;26320;-48
2022/05/21 03:17:53;;;;;;;0.60;0.60;;;;;;;;;;1800471;79;26689;-53
2022/05/21 03:20:21;;;;;;;0.70;0.70;;;;;;;;;;1800530;79;26297;-48
2022/05/21 03:22:49;;;;;;;0.70;0.70;;;;;;;;;;1794257;79;26296;-51
2022/05/21 03:25:17;;;;;;;1.35;0.60;;;;;;;;;;1799732;79;26359;-53
2022/05/21 03:27:45;;;;;;;0.80;0.80;;;;;;;;;;1800299;79;26371;-47
2022/05/21 03:30:14;;;;;;;0.70;0.70;;;;;;;;;;1800174;79;26285;-51
2022/05/21 03:32:42;;;;;;;0.70;0.70;;;;;;;;;;1803519;78;26340;-51
2022/05/21 03:35:11;;;;;;;0.85;0.80;;;;;;;;;;1800272;79;26289;-47
2022/05/21 03:37:39;;;;;;;1.07;0.75;;;;;;;;;;1806007;78;26744;-48
2022/05/21 03:40:08;;;;;;;0.70;0.70;;;;;;;;;;1800648;78;26285;-50
2022/05/21 03:42:37;;;;;;;0.60;0.60;;;;;;;;;;1800996;78;27588;-47
2022/05/21 03:45:05;;;;;;;0.70;0.70;;;;;;;;;;1797096;79;26674;-48
2022/05/21 03:47:33;;;;;;;0.70;0.70;;;;;;;;;;1799395;78;26293;-54
2022/05/21 03:50:01;;;;;;;0.80;0.80;;;;;;;;;;1794779;78;26309;-50
2022/05/21 03:52:29;;;;;;;0.82;0.82;;;;;;;;;;1795028;78;26892;-53
2022/05/21 03:54:56;;;;;;;1.20;1.00;;;;;;;;;;1800501;79;26317;-49
2022/05/21 03:57:23;;;;;;;0.72;0.72;;;;;;;;;;1800764;79;26293;-51
2022/05/21 03:59:50;;;;;;;0.78;0.78;;;;;;;;;;1804034;78;26313;-49
2022/05/21 04:02:18;;;;;;;0.80;0.80;;;;;;;;;;1774839;79;26300;-50
2022/05/21 04:04:45;;;;;;;0.78;0.78;;;;;;;;;;1781153;78;26791;-49
2022/05/21 04:07:12;;;;;;;1.22;0.70;;;;;;;;;;1795378;78;26844;-47
2022/05/21 04:09:39;;;;;;;0.80;0.80;;;;;;;;;;1797255;78;27669;-47
2022/05/21 04:12:08;;;;;;;0.75;0.75;;;;;;;;;;1796026;78;26309;-52
2022/05/21 04:14:35;;;;;;;0.70;0.70;;;;;;;;;;1793836;78;26832;-51
2022/05/21 04:17:03;;;;;;;0.80;0.80;;;;;;;;;;1789105;80;26677;-56
2022/05/21 04:19:31;;;;;;;0.70;0.70;;;;;;;;;;1766315;80;26760;-48
2022/05/21 04:21:59;;;;;;;0.70;0.70;;;;;;;;;;1776523;78;27009;-47
2022/05/21 04:24:26;;;;;;;0.70;0.70;;;;;;;;;;1796599;80;26745;-44
2022/05/21 04:26:53;;;;;;;0.80;0.80;;;;;;;;;;1796993;80;26258;-53
2022/05/21 04:29:20;;;;;;;1.47;0.80;;;;;;;;;;1797936;80;26226;-51
2022/05/21 04:31:48;;;;;;;1.17;0.90;;;;;;;;;;1795735;80;26322;-50
2022/05/21 04:34:16;;;;;;;0.80;0.80;;;;;;;;;;1795002;80;26296;-52
2022/05/21 04:36:43;;;;;;;0.80;0.80;;;;;;;;;;1792876;78;26305;-52
2022/05/21 04:39:10;;;;;;;0.80;0.80;;;;;;;;;;1772780;80;26289;-52
2022/05/21 04:41:38;;;;;;;0.80;0.80;;;;;;;;;;1799529;78;26364;-51
2022/05/21 04:44:07;;;;;;;0.80;0.80;;;;;;;;;;1794929;78;26321;-54
2022/05/21 04:46:35;;;;;;;0.68;0.68;;;;;;;;;;1794168;80;26927;-50
2022/05/21 04:49:03;;;;;;;0.80;0.80;;;;;;;;;;1792296;80;26900;-52
2022/05/21 04:51:31;;;;;;;4.03;0.80;;;;;;;;;;1780977;80;26336;-49
2022/05/21 04:53:59;;;;;;;2.25;1.20;;;;;;;;;;1794512;80;26281;-47
2022/05/21 04:56:26;;;;;;;0.80;0.80;;;;;;;;;;1791852;80;26277;-49
2022/05/21 04:58:53;;;;;;;0.95;0.90;;;;;;;;;;1794000;78;26552;-51
2022/05/21 05:01:20;;;;;;;0.82;0.82;;;;;;;;;;1794164;78;26356;-52
2022/05/21 05:03:48;;;;;;;1.15;1.00;;;;;;;;;;1789983;80;26269;-49
2022/05/21 05:06:15;;;;;;;0.80;0.80;;;;;;;;;;1792778;79;26305;-51
2022/05/21 05:08:42;;;;;;;1.00;0.90;;;;;;;;;;1803944;78;26250;-46
2022/05/21 05:11:09;;;;;;;0.80;0.70;;;;;;;;;;1784757;80;26424;-51
2022/05/21 05:13:37;;;;;;;0.80;0.80;;;;;;;;;;1785609;80;26359;-48
2022/05/21 05:16:04;;;;;;;1.00;1.00;;;;;;;;;;1794485;80;26372;-51
2022/05/21 05:18:31;;;;;;;0.93;0.90;;;;;;;;;;1793460;78;26680;-52
2022/05/21 05:20:59;;;;;;;1.20;0.72;;;;;;;;;;1790522;80;26344;-45
2022/05/21 05:23:27;;;;;;;1.22;0.85;;;;;;;;;;1793988;80;26868;-48
2022/05/21 05:25:54;;;;;;;1.05;1.05;;;;;;;;;;1793935;80;26844;-52
2022/05/21 05:28:22;;;;;;;0.80;0.80;;;;;;;;;;1793765;80;26267;-46
2022/05/21 05:30:51;;;;;;;1.05;1.00;;;;;;;;;;1793938;80;26745;-52
2022/05/21 05:33:19;;;;;;;0.90;0.90;;;;;;;;;;1789981;78;26329;-47
2022/05/21 05:35:54;;;;;;;1.00;1.00;;;;;;;;;;1793241;80;26358;-49
2022/05/21 05:38:21;;;;;;;0.93;0.93;;;;;;;;;;1789217;78;26309;-52
2022/05/21 05:40:50;;;;;;;0.90;0.90;;;;;;;;;;1792238;78;26274;-48
2022/05/21 05:43:19;;;;;;;0.80;0.80;;;;;;;;;;1792274;78;26345;-50
2022/05/21 05:45:48;;;;;;;0.80;0.80;;;;;;;;;;1793897;80;26761;-49
2022/05/21 05:48:15;;;;;;;0.85;0.85;;;;;;;;;;1793145;80;26391;-51
2022/05/21 05:50:42;;;;;;;1.17;0.90;;;;;;;;;;1791111;78;26317;-46
2022/05/21 05:53:09;;;;;;;0.80;0.80;;;;;;;;;;1791686;80;26285;-47
2022/05/21 05:55:37;;;;;;;1.07;1.07;;;;;;;;;;1794292;80;25871;-50
2022/05/21 05:59:48;;;;;;;1.00;1.00;;;;;;;;;;1790869;78;26321;-52
2022/05/21 06:00:34;;;;;;;1.67;0.90;;;;;;;;;;1792677;78;26399;-52
2022/05/21 06:03:01;;;;;;;1.60;0.90;;;;;;;;;;1791296;78;26393;-49
2022/05/21 06:05:32;;;;;;;1.85;0.88;;;;;;;;;;1792758;78;26954;-55
2022/05/21 06:08:02;;;;;;;1.25;1.12;;;;;;;;;;1788181;78;26346;-54
2022/05/21 06:10:33;;;;;;;1.00;1.00;;;;;;;;;;1793191;78;26598;-47
2022/05/21 06:13:00;;;;;;;1.10;1.10;;;;;;;;;;1791351;78;26341;-50
2022/05/21 06:15:28;;;;;;;1.00;1.00;;;;;;;;;;1798469;78;26457;-55
2022/05/21 06:17:56;;;;;;;2.45;0.90;;;;;;;;;;1796499;78;27622;-52
2022/05/21 06:20:24;;;;;;;1.32;0.98;;;;;;;;;;1799900;78;26289;-50
2022/05/21 06:22:52;;;;;;;1.10;1.10;;;;;;;;;;1799845;78;26281;-47
2022/05/21 06:25:21;;;;;;;3.70;1.10;;;;;;;;;;1800437;79;26310;-51
2022/05/21 06:27:49;;;;;;;1.10;1.10;;;;;;;;;;1799589;79;26836;-55
2022/05/21 06:30:18;;;;;;;2.22;1.00;;;;;;;;;;1794535;78;26323;-50
2022/05/21 06:32:45;;;;;;;1.05;1.05;;;;;;;;;;1802652;78;26289;-48
2022/05/21 06:35:13;;;;;;;1.32;1.20;;;;;;;;;;1799455;79;26285;-48
2022/05/21 06:37:41;;;;;;;5.92;1.32;;;;;;;;;;1791736;78;26308;-50
2022/05/21 06:40:09;;;;;;;5.10;1.22;;;;;;;;;;1797185;78;25917;-55
2022/05/21 06:42:37;;;;;;;9.68;1.30;;;;;;;;;;1795169;79;26285;-49
2022/05/21 06:45:05;;;;;;;10.55;1.42;;;;;;;;;;1799115;78;26289;-53
2022/05/21 06:47:32;;;;;;;16.23;1.90;;;;;;;;;;1795041;78;26388;-50
2022/05/21 06:49:59;;;;;;;9.90;1.27;;;;;;;;;;1796763;79;26560;-52
2022/05/21 06:52:28;;;;;;;10.38;1.72;;;;;;;;;;1799727;79;26361;-49
2022/05/21 06:54:55;;;;;;;7.80;1.40;;;;;;;;;;1794508;79;26282;-49
2022/05/21 06:57:26;;;;;;;4.53;1.30;;;;;;;;;;1798501;78;26293;-49
2022/05/21 06:59:52;;;;;;;8.73;1.45;;;;;;;;;;1799142;78;26305;-54
2022/05/21 07:02:19;;;;;;;13.62;1.72;;;;;;;;;;1797579;79;26309;-49
2022/05/21 07:07:43;;;;;;;4.85;1.40;;;;;;;;;;1797267;79;26765;-51
2022/05/21 07:10:08;;;;;;;14.30;1.75;;;;;;;;;;1798727;79;26395;-51
2022/05/21 07:12:36;;;;;;;6.90;1.52;;;;;;;;;;1797477;77;26395;-49
2022/05/21 07:15:05;;;;;;;2.70;1.15;;;;;;;;;;1799001;78;25935;-53
2022/05/21 07:17:32;;;;;;;5.85;1.40;;;;;;;;;;1798129;79;26725;-54
2022/05/21 07:20:01;;;;;;;2.42;1.30;;;;;;;;;;1799788;79;27180;-47
2022/05/21 07:22:28;;;;;;;4.80;1.40;;;;;;;;;;1799686;79;26372;-48
2022/05/21 07:24:56;;;;;;;4.03;1.37;;;;;;;;;;1799569;79;26386;-51
2022/05/21 07:27:23;;;;;;;2.98;1.10;;;;;;;;;;1799818;79;26247;-53
2022/05/21 07:29:50;;;;;;;2.30;1.15;;;;;;;;;;1796333;79;26709;-49
2022/05/21 07:32:22;;;;;;;7.65;1.50;;;;;;;;;;1802040;78;26351;-56
2022/05/21 07:34:51;;;;;;;3.30;1.42;;;;;;;;;;1800321;79;26274;-47
2022/05/21 07:37:18;;;;;;;3.55;1.22;;;;;;;;;;1790253;79;26355;-52
2022/05/21 07:39:46;;;;;;;9.35;1.47;;;;;;;;;;1800542;79;26257;-49
2022/05/21 07:42:13;;;;;;;9.60;1.67;;;;;;;;;;1800360;79;26281;-50
2022/05/21 07:44:41;;;;;;;2.50;1.37;;;;;;;;;;1799676;79;26784;-49
2022/05/21 07:47:08;;;;;;;13.00;1.62;;;;;;;;;;1799537;79;26686;-50
2022/05/21 07:49:35;;;;;;;8.55;1.40;;;;;;;;;;1799793;79;26379;-48
2022/05/21 07:52:04;;;;;;;6.60;1.50;;;;;;;;;;1786188;78;26325;-48
2022/05/21 07:54:31;;;;;;;9.08;1.67;;;;;;;;;;1784882;79;26390;-49
2022/05/21 07:57:01;;;;;;;8.63;1.30;;;;;;;;;;1787571;79;26340;-53
2022/05/21 07:59:28;;;;;;;21.40;1.62;;;;;;;;;;1799711;78;26351;-47
2022/05/21 08:01:55;;;;;;;6.53;1.40;;;;;;;;;;1800923;79;26364;-52
2022/05/21 08:04:23;;;;;;;6.62;1.20;;;;;;;;;;1800704;79;26282;-52
2022/05/21 08:06:50;;;;;;;13.68;1.50;;;;;;;;;;1794130;78;26730;-46
2022/05/21 08:09:17;;;;;;;3.95;1.30;;;;;;;;;;1815913;78;26344;-50
2022/05/21 08:11:44;;;;;;;3.92;1.30;;;;;;;;;;1799783;78;26314;-50
2022/05/21 08:14:12;;;;;;;4.30;1.10;;;;;;;;;;1799477;79;26314;-49
2022/05/21 08:16:39;;;;;;;5.40;1.15;;;;;;;;;;1796230;78;26317;-48
2022/05/21 08:19:06;;;;;;;6.50;1.37;;;;;;;;;;1798734;78;26351;-54
2022/05/21 08:21:34;;;;;;;6.53;1.47;;;;;;;;;;1799524;78;26351;-55
2022/05/21 08:29:26;;;;;;;8.20;1.37;;;;;;;;;;1774948;78;26297;-54
2022/05/21 08:31:54;;;;;;;5.85;1.42;;;;;;;;;;1785638;78;26300;-52
2022/05/21 08:34:22;;;;;;;4.47;1.30;;;;;;;;;;1794652;79;26293;-46
2022/05/21 08:36:49;;;;;;;3.50;0.98;;;;;;;;;;1802537;79;26333;-52
2022/05/21 08:39:17;;;;;;;4.17;2.08;;;;;;;;;;1798413;79;26363;-49
2022/05/21 08:41:56;;;;;;;2.67;1.20;;;;;;;;;;1799912;79;26784;-50
2022/05/21 08:44:38;;;;;;;6.15;1.42;;;;;;;;;;1799012;79;26374;-50
2022/05/21 08:47:06;;;;;;;1.22;1.10;;;;;;;;;;1793430;79;26590;-49
2022/05/21 08:49:41;;;;;;;3.20;1.42;;;;;;;;;;1797554;79;26290;-51
2022/05/21 08:52:19;;;;;;;1.82;1.17;;;;;;;;;;1798925;79;26351;-49
2022/05/21 08:54:48;;;;;;;1.65;1.10;;;;;;;;;;1748197;79;26290;-49
2022/05/21 08:57:35;;;;;;;0.90;0.80;;;;;;;;;;1783292;79;26300;-47
2022/05/21 09:00:04;;;;;;;5.00;1.07;;;;;;;;;;1793539;78;26372;-50
2022/05/21 09:02:33;;;;;;;0.90;0.90;;;;;;;;;;1790943;79;26300;-48
2022/05/21 09:05:00;;;;;;;1.95;1.10;;;;;;;;;;1799842;79;26336;-50
2022/05/21 09:07:29;;;;;;;1.70;1.02;;;;;;;;;;1798853;79;26296;-51
2022/05/21 09:09:58;;;;;;;2.65;1.10;;;;;;;;;;1799976;79;26614;-48
2022/05/21 09:12:27;;;;;;;1.20;0.90;;;;;;;;;;1799662;79;26298;-52
2022/05/21 09:14:56;;;;;;;1.10;1.00;;;;;;;;;;1796855;77;26327;-50
2022/05/21 09:17:24;;;;;;;0.90;0.90;;;;;;;;;;1799106;78;26290;-51
2022/05/21 09:19:57;;;;;;;0.95;0.95;;;;;;;;;;1792065;78;26313;-54
2022/05/21 09:22:24;;;;;;;1.12;1.00;;;;;;;;;;1799720;78;26746;-50
2022/05/21 09:24:56;;;;;;;1.62;0.90;;;;;;;;;;1799138;79;26280;-50
2022/05/21 09:27:34;;;;;;;2.35;0.80;;;;;;;;;;1795707;78;26290;-50
2022/05/21 09:30:15;;;;;;;3.52;0.90;;;;;;;;;;1799533;78;26746;-49
2022/05/21 09:32:44;;;;;;;2.58;0.88;;;;;;;;;;1802371;78;26289;-51
2022/05/21 09:35:16;;;;;;;2.17;1.00;;;;;;;;;;1797740;78;27048;-50
2022/05/21 09:37:45;;;;;;;1.22;1.07;;;;;;;;;;1794701;78;26298;-50
2022/05/21 09:40:30;;;;;;;3.77;0.90;;;;;;;;;;1794186;79;26269;-51
2022/05/21 09:45:44;;;;;;;1.10;1.10;;;;;;;;;;1793629;78;26329;-53
2022/05/21 09:48:13;;;;;;;2.12;0.90;;;;;;;;;;1798935;78;27407;-53
2022/05/21 09:50:44;;;;;;;1.25;0.90;;;;;;;;;;1792921;78;27241;-50
2022/05/21 09:53:28;;;;;;;1.67;0.93;;;;;;;;;;1793804;78;26304;-51
2022/05/21 09:56:03;;;;;;;1.22;0.95;;;;;;;;;;1797889;78;26839;-48
2022/05/21 09:58:35;;;;;;;3.12;1.20;;;;;;;;;;1800285;78;26376;-52
2022/05/21 10:01:02;;;;;;;1.47;0.80;;;;;;;;;;1794402;78;26725;-50
2022/05/21 10:03:37;;;;;;;1.55;0.80;;;;;;;;;;1800243;78;26267;-46
2022/05/21 10:06:05;;;;;;;0.80;0.80;;;;;;;;;;1798217;78;26829;-52
2022/05/21 10:11:21;;;;;;;1.95;1.10;;;;;;;;;;1797121;78;25825;-56
2022/05/21 10:13:49;;;;;;;0.93;0.90;;;;;;;;;;1796711;77;26908;-52
2022/05/21 10:16:18;;;;;;;2.98;1.20;;;;;;;;;;1800929;78;26317;-50
2022/05/21 10:18:53;;;;;;;2.72;1.00;;;;;;;;;;1785115;78;26318;-54
2022/05/21 10:21:25;;;;;;;2.37;1.40;;;;;;;;;;1788027;79;26873;-47
2022/05/21 10:23:54;;;;;;;2.37;0.90;;;;;;;;;;1796598;78;26880;-50
2022/05/21 10:26:38;;;;;;;3.17;0.98;;;;;;;;;;1791210;79;26306;-52
2022/05/21 10:29:22;;;;;;;1.27;1.12;;;;;;;;;;1794655;78;26831;-55
2022/05/21 10:31:51;;;;;;;1.22;1.20;;;;;;;;;;1729640;82;26432;-50
2022/05/21 10:34:28;;;;;;;2.40;1.00;;;;;;;;;;1766285;79;26878;-50
2022/05/21 10:37:04;;;;;;;0.98;0.98;;;;;;;;;;1794479;79;26364;-51
2022/05/21 10:39:47;;;;;;;2.50;1.10;;;;;;;;;;1800103;78;26678;-53
2022/05/21 10:42:19;;;;;;;0.98;0.98;;;;;;;;;;1798912;79;26289;-51
2022/05/21 10:45:06;;;;;;;1.37;1.00;;;;;;;;;;1762940;79;26360;-50
2022/05/21 10:47:37;;;;;;;1.00;1.00;;;;;;;;;;1797667;79;26817;-47
2022/05/21 10:50:08;;;;;;;1.05;1.05;;;;;;;;;;1796853;78;26421;-48
2022/05/21 10:52:42;;;;;;;0.90;0.90;;;;;;;;;;1795051;79;26289;-54
2022/05/21 10:55:20;;;;;;;5.15;1.45;;;;;;;;;;1799087;79;26360;-52
2022/05/21 10:57:52;;;;;;;0.88;0.88;;;;;;;;;;1797763;78;26321;-54
2022/05/21 11:00:21;;;;;;;1.10;1.00;;;;;;;;;;1802267;78;26316;-50
2022/05/21 11:02:58;;;;;;;1.10;1.00;;;;;;;;;;1798706;79;26343;-51
2022/05/21 11:05:44;;;;;;;0.90;0.90;;;;;;;;;;1802011;78;26289;-55
2022/05/21 11:08:10;;;;;;;0.93;0.93;;;;;;;;;;1796165;78;26465;-50
2022/05/21 11:10:41;;;;;;;0.95;0.90;;;;;;;;;;1792194;79;26402;-47
2022/05/21 11:13:10;;;;;;;1.17;0.90;;;;;;;;;;1799470;79;26411;-54
2022/05/21 11:15:39;;;;;;;1.17;1.17;;;;;;;;;;1798350;78;26349;-47
2022/05/21 11:18:14;;;;;;;1.02;1.02;;;;;;;;;;1793511;78;26470;-48
2022/05/21 11:20:43;;;;;;;0.88;0.88;;;;;;;;;;1790617;78;26306;-48
2022/05/21 11:23:18;;;;;;;1.45;0.98;;;;;;;;;;1792334;80;26903;-53
2022/05/21 11:25:49;;;;;;;1.27;0.90;;;;;;;;;;1787313;78;26406;-51
2022/05/21 11:28:21;;;;;;;0.90;0.90;;;;;;;;;;1783565;78;26286;-49
2022/05/21 11:30:48;;;;;;;1.00;1.00;;;;;;;;;;1790060;80;26757;-47
2022/05/21 11:38:50;;;;;;;2.22;1.00;;;;;;;;;;1790530;78;26421;-48
2022/05/21 11:41:31;;;;;;;1.42;0.90;;;;;;;;;;1791179;78;27135;-50
2022/05/21 11:46:52;;;;;;;0.90;0.90;;;;;;;;;;1795024;78;26310;-51
2022/05/21 11:49:27;;;;;;;0.82;0.82;;;;;;;;;;1793563;78;26648;-52
2022/05/21 11:51:54;;;;;;;1.00;1.00;;;;;;;;;;1788878;78;26289;-51
2022/05/21 11:54:40;;;;;;;0.80;0.80;;;;;;;;;;1806787;78;27455;-54
2022/05/21 11:57:07;;;;;;;0.80;0.80;;;;;;;;;;1792338;78;26310;-54
2022/05/21 11:59:36;;;;;;;1.17;0.95;;;;;;;;;;1795933;78;26668;-48
2022/05/21 12:02:14;;;;;;;3.37;0.90;;;;;;;;;;1787947;80;26372;-52
2022/05/21 12:04:43;;;;;;;0.80;0.80;;;;;;;;;;1704557;84;26514;-47
2022/05/21 12:07:15;;;;;;;1.22;0.90;;;;;;;;;;1793365;78;26779;-49
2022/05/21 12:09:43;;;;;;;1.07;0.80;;;;;;;;;;1802018;78;26361;-48
2022/05/21 12:12:16;;;;;;;1.57;0.90;;;;;;;;;;1786172;80;26387;-51
2022/05/21 12:14:56;;;;;;;2.52;0.80;;;;;;;;;;1795124;79;26326;-52
2022/05/21 12:17:37;;;;;;;4.33;0.98;;;;;;;;;;1800334;79;26312;-49
2022/05/21 12:20:06;;;;;;;0.90;0.90;;;;;;;;;;1790613;79;26326;-50
2022/05/21 12:22:40;;;;;;;0.70;0.70;;;;;;;;;;1791197;79;26795;-52
2022/05/21 12:25:13;;;;;;;0.70;0.70;;;;;;;;;;1798389;79;26302;-48
2022/05/21 12:27:48;;;;;;;0.90;0.90;;;;;;;;;;1799790;78;26234;-53
2022/05/21 12:30:16;;;;;;;0.90;0.90;;;;;;;;;;1797995;79;26754;-49
2022/05/21 12:32:45;;;;;;;0.90;0.90;;;;;;;;;;1802179;78;27241;-53
2022/05/21 12:35:29;;;;;;;0.75;0.75;;;;;;;;;;1800201;78;26375;-50
2022/05/21 12:38:13;;;;;;;0.98;0.90;;;;;;;;;;1789975;78;26803;-47
2022/05/21 12:41:02;;;;;;;0.80;0.80;;;;;;;;;;1790717;79;26218;-47
2022/05/21 12:43:30;;;;;;;0.95;0.95;;;;;;;;;;1802052;79;26408;-45
2022/05/21 12:45:57;;;;;;;1.77;0.90;;;;;;;;;;1796329;79;26372;-49
2022/05/21 12:48:26;;;;;;;1.00;0.90;;;;;;;;;;1790595;78;26336;-47
2022/05/21 12:50:55;;;;;;;1.22;0.90;;;;;;;;;;1795503;78;26403;-46
2022/05/21 12:53:30;;;;;;;0.70;0.70;;;;;;;;;;1799631;79;26296;-54
2022/05/21 12:55:59;;;;;;;3.33;0.80;;;;;;;;;;1794943;78;26383;-48
2022/05/21 12:58:26;;;;;;;1.50;0.75;;;;;;;;;;1798555;78;26416;-49
2022/05/21 13:00:55;;;;;;;3.70;0.90;;;;;;;;;;1800883;78;26328;-49
2022/05/21 13:03:23;;;;;;;0.80;0.80;;;;;;;;;;1785115;79;26403;-48
2022/05/21 13:05:55;;;;;;;2.95;0.80;;;;;;;;;;1797188;79;26320;-46
2022/05/21 13:08:23;;;;;;;0.90;0.90;;;;;;;;;;1796594;79;26941;-46
2022/05/21 13:10:55;;;;;;;3.92;0.90;;;;;;;;;;1805843;78;26723;-48
2022/05/21 13:13:23;;;;;;;1.50;0.70;;;;;;;;;;1805564;78;26781;-47
2022/05/21 13:15:58;;;;;;;0.90;0.90;;;;;;;;;;1801614;79;26398;-45
2022/05/21 13:18:36;;;;;;;1.42;0.93;;;;;;;;;;1802929;79;26297;-50
2022/05/21 13:21:20;;;;;;;0.70;0.70;;;;;;;;;;1802632;79;26328;-48
2022/05/21 13:23:58;;;;;;;1.57;0.80;;;;;;;;;;1784882;79;26279;-53
2022/05/21 13:26:26;;;;;;;2.72;0.90;;;;;;;;;;1797592;78;26297;-53
2022/05/21 13:28:55;;;;;;;1.77;0.80;;;;;;;;;;1803058;78;26339;-54
2022/05/21 13:31:23;;;;;;;1.27;0.80;;;;;;;;;;1798288;78;26225;-60
2022/05/21 13:33:52;;;;;;;1.07;0.72;;;;;;;;;;1802839;78;26576;-50
2022/05/21 13:36:23;;;;;;;1.85;0.70;;;;;;;;;;1790681;78;26320;-52
2022/05/21 13:38:53;;;;;;;1.12;0.80;;;;;;;;;;1797108;79;26293;-53
2022/05/21 13:41:24;;;;;;;3.40;1.00;;;;;;;;;;1788133;78;26958;-49
2022/05/21 13:43:52;;;;;;;4.22;0.93;;;;;;;;;;1793819;78;26419;-48
2022/05/21 13:46:20;;;;;;;5.87;0.90;;;;;;;;;;1802615;78;26313;-53
2022/05/21 13:48:49;;;;;;;0.80;0.80;;;;;;;;;;1792338;78;26305;-54
2022/05/21 13:51:18;;;;;;;0.70;0.70;;;;;;;;;;1800119;78;26336;-52
2022/05/21 13:53:46;;;;;;;1.37;0.90;;;;;;;;;;1802546;78;26788;-52
2022/05/21 13:56:32;;;;;;;0.80;0.80;;;;;;;;;;1802630;78;26860;-50
2022/05/21 13:59:13;;;;;;;0.70;0.70;;;;;;;;;;1803804;78;26274;-49
2022/05/21 14:01:42;;;;;;;0.80;0.80;;;;;;;;;;1801592;79;26306;-55
2022/05/21 14:04:11;;;;;;;0.98;0.80;;;;;;;;;;1803114;79;26297;-52
2022/05/21 14:06:45;;;;;;;1.47;1.00;;;;;;;;;;1797470;78;26293;-50
2022/05/21 14:09:17;;;;;;;0.90;0.90;;;;;;;;;;1801197;78;26264;-50
2022/05/21 14:11:46;;;;;;;1.72;0.95;;;;;;;;;;1802126;79;26281;-51
2022/05/21 14:14:14;;;;;;;0.80;0.80;;;;;;;;;;1801242;78;26285;-50
2022/05/21 14:16:43;;;;;;;3.10;0.98;;;;;;;;;;1789809;79;26337;-52
2022/05/21 14:19:20;;;;;;;3.22;1.00;;;;;;;;;;1804127;78;26294;-54
2022/05/21 14:22:06;;;;;;;1.67;0.90;;;;;;;;;;1793694;79;27369;-51
2022/05/21 14:24:35;;;;;;;1.42;0.80;;;;;;;;;;1797577;79;26289;-51
2022/05/21 14:27:03;;;;;;;1.00;1.00;;;;;;;;;;1798346;79;26678;-52
2022/05/21 14:29:38;;;;;;;1.95;0.80;;;;;;;;;;1800046;79;26289;-50
2022/05/21 14:32:13;;;;;;;1.10;0.98;;;;;;;;;;1808428;79;26799;-46
2022/05/21 14:34:40;;;;;;;2.72;0.88;;;;;;;;;;1785487;79;26880;-52
2022/05/21 14:37:10;;;;;;;0.80;0.80;;;;;;;;;;1796873;79;26367;-51
2022/05/21 14:39:38;;;;;;;1.65;0.70;;;;;;;;;;1783069;79;26273;-52
2022/05/21 14:42:05;;;;;;;0.80;0.80;;;;;;;;;;1799825;79;26761;-47
2022/05/21 14:44:33;;;;;;;2.40;0.90;;;;;;;;;;1797884;79;26336;-55
2022/05/21 14:49:46;;;;;;;1.57;0.90;;;;;;;;;;1797573;79;26301;-48
2022/05/21 14:55:00;;;;;;;0.88;0.88;;;;;;;;;;1817344;78;26383;-49
2022/05/21 14:57:27;;;;;;;0.80;0.80;;;;;;;;;;1800617;78;26222;-51
2022/05/21 14:59:54;;;;;;;1.05;0.78;;;;;;;;;;1807198;78;26630;-54
2022/05/21 15:02:21;;;;;;;0.80;0.80;;;;;;;;;;1799134;79;26274;-46
2022/05/21 15:04:49;;;;;;;1.50;0.98;;;;;;;;;;1800287;79;26363;-50
2022/05/21 15:07:18;;;;;;;1.95;0.90;;;;;;;;;;1797403;79;26312;-49
2022/05/21 15:09:45;;;;;;;0.72;0.70;;;;;;;;;;1786455;79;26782;-50
2022/05/21 15:12:13;;;;;;;2.40;0.98;;;;;;;;;;1799361;79;26289;-55
2022/05/21 15:14:40;;;;;;;0.90;0.90;;;;;;;;;;1796133;78;26686;-46
2022/05/21 15:17:07;;;;;;;0.98;0.78;;;;;;;;;;1798396;79;26845;-48
2022/05/21 15:19:36;;;;;;;0.80;0.80;;;;;;;;;;1798021;78;26406;-51
2022/05/21 15:22:06;;;;;;;0.80;0.80;;;;;;;;;;1800479;79;26419;-52
2022/05/21 15:24:37;;;;;;;0.82;0.82;;;;;;;;;;1796914;79;26298;-53
2022/05/21 15:27:03;;;;;;;0.80;0.80;;;;;;;;;;1797774;79;26328;-46
2022/05/21 15:29:30;;;;;;;0.70;0.70;;;;;;;;;;1802290;78;26283;-52
2022/05/21 15:31:58;;;;;;;1.17;0.80;;;;;;;;;;1803902;78;26278;-49
2022/05/21 15:34:25;;;;;;;0.85;0.85;;;;;;;;;;1804723;78;26796;-54